San Carlos de Bariloche, Argentina
Current Conditions -  °F | °C
As of 10:00 AM on Sunday 23 Nov 2014 (Local Time) from SAZS Reporting Station
Broken Clouds Broken Clouds  
Wind Chill: 52°   Ceiling: 20000
Heat Index: 52°   Visibility: 6mi
Dew Point: 37°   Wind: 24mph
Humidity: 58%   Direction: 320°NW
Pressure: 29.74"   Gusts: NA
Location:  41.14°S, 71.31°W
Report Text: SAZS 231300Z 32021KT 9999 SCT029 SCT100BKN200 11/03 Q1007
Loading
Personal Weather Stations






























Interactive Weather Map New forecast layout! Learn more

10-Day Weather Forecast

Advertisements
Track Severe Weather on mobile